Time;durP1;ratioP1;P1;durP2;ratioP2;P2;SDS_P1;SDS_P2;PMS_P1;PMS_P2;Temp;Humidity;BMP_temperature;BMP_pressure;BME280_temperature;BME280_humidity;BME280_pressure;Samples;Min_cycle;Max_cycle;Signal;HPM_P1;HPM_P2
2021/11/13 00:00:43;;;;;;;23.00;17.27;;;3.30;99.90;;;4.10;100.00;100017.53;5134013;27;20286;-59
2021/11/13 00:03:12;;;;;;;23.57;16.73;;;3.40;99.90;;;4.00;100.00;100022.28;5133595;27;20706;-62
2021/11/13 00:05:43;;;;;;;21.70;16.70;;;3.40;99.90;;;4.17;100.00;100019.31;5133837;27;20650;-61
2021/11/13 00:08:12;;;;;;;22.10;17.33;;;3.40;99.90;;;4.01;100.00;100022.13;5133714;27;20269;-59
2021/11/13 00:10:41;;;;;;;20.07;16.80;;;3.40;99.90;;;3.92;100.00;100027.72;5133786;27;20309;-59
2021/11/13 00:13:10;;;;;;;23.33;17.30;;;3.30;99.90;;;3.74;100.00;100025.34;5133594;27;20539;-60
2021/11/13 00:15:38;;;;;;;21.27;16.10;;;3.30;99.90;;;3.82;100.00;100030.63;5134082;27;20199;-60
2021/11/13 00:18:09;;;;;;;21.67;15.47;;;3.30;99.90;;;3.79;100.00;100030.16;5133218;27;20717;-62
2021/11/13 00:20:38;;;;;;;21.10;16.00;;;3.30;99.90;;;4.02;100.00;100021.13;5133877;27;20180;-61
2021/11/13 00:23:07;;;;;;;20.83;15.57;;;3.30;99.90;;;3.92;100.00;100028.53;5133587;27;20538;-61
2021/11/13 00:25:36;;;;;;;19.17;15.37;;;3.30;99.90;;;3.96;100.00;100026.34;5133707;28;20207;-60
2021/11/13 00:28:04;;;;;;;20.17;15.20;;;3.30;99.90;;;3.88;100.00;100026.41;5133709;28;20289;-60
2021/11/13 00:30:32;;;;;;;18.90;14.53;;;3.30;99.90;;;3.99;100.00;100034.78;5133784;28;20307;-62
2021/11/13 00:33:01;;;;;;;19.27;15.27;;;3.30;99.90;;;3.88;100.00;100039.72;5134045;28;20651;-60
2021/11/13 00:35:29;;;;;;;19.27;15.67;;;3.30;99.90;;;3.90;100.00;100033.22;5133610;28;20702;-58
2021/11/13 00:37:58;;;;;;;19.80;15.70;;;3.30;99.90;;;3.87;100.00;100028.25;5133280;28;20646;-59
2021/11/13 00:40:27;;;;;;;18.27;15.10;;;3.30;99.90;;;4.02;100.00;100022.94;5133186;28;20651;-60
2021/11/13 00:42:55;;;;;;;19.13;13.73;;;3.20;99.90;;;4.08;100.00;100014.22;5133638;28;20297;-61
2021/11/13 00:45:23;;;;;;;19.27;14.90;;;3.20;99.90;;;3.98;100.00;100009.16;5133252;28;20240;-59
2021/11/13 00:47:51;;;;;;;17.30;13.37;;;3.20;99.90;;;3.84;100.00;100022.47;5132980;28;20205;-60
2021/11/13 00:50:19;;;;;;;18.07;13.90;;;3.20;99.90;;;3.79;100.00;100015.00;5133421;28;20312;-60
2021/11/13 00:52:47;;;;;;;21.30;16.23;;;3.20;99.90;;;3.92;100.00;100017.88;5133224;28;20206;-61
2021/11/13 00:55:19;;;;;;;17.70;14.33;;;3.20;99.90;;;3.99;100.00;100020.66;5134472;27;20310;-59
2021/11/13 00:57:48;;;;;;;15.47;13.10;;;3.20;99.90;;;3.92;100.00;100022.38;5137695;27;20321;-59
2021/11/13 01:00:20;;;;;;;21.73;17.30;;;3.20;99.90;;;3.85;100.00;100027.59;5137567;27;20684;-59
2021/11/13 01:02:49;;;;;;;23.90;18.80;;;3.20;99.90;;;3.83;100.00;100029.63;5137435;27;20215;-58
2021/11/13 01:05:18;;;;;;;22.60;18.80;;;3.30;99.90;;;3.98;100.00;100033.16;5137380;27;20284;-59
2021/11/13 01:07:48;;;;;;;23.10;19.40;;;3.30;99.90;;;3.87;100.00;100024.75;5137361;27;20196;-61
2021/11/13 01:10:20;;;;;;;21.00;17.47;;;3.30;99.90;;;3.87;100.00;100022.94;5137032;27;20321;-60
2021/11/13 01:12:51;;;;;;;17.73;14.17;;;3.30;99.90;;;3.93;100.00;100027.53;5137308;27;20191;-58
2021/11/13 01:15:21;;;;;;;17.27;13.70;;;3.30;99.90;;;3.95;100.00;100025.50;5137191;27;20190;-59
2021/11/13 01:17:50;;;;;;;18.00;12.97;;;3.30;99.90;;;3.91;100.00;100026.88;5136767;27;20228;-61
2021/11/13 01:20:20;;;;;;;16.97;13.40;;;3.30;99.90;;;3.94;100.00;100018.50;5137121;27;20474;-61
2021/11/13 01:22:49;;;;;;;18.00;13.40;;;3.30;99.90;;;3.99;100.00;100024.13;5136934;27;20197;-59
2021/11/13 01:25:18;;;;;;;18.17;12.97;;;3.40;99.90;;;4.12;100.00;100005.69;5136926;27;20250;-59
2021/11/13 01:27:47;;;;;;;16.43;12.93;;;3.40;99.90;;;4.12;100.00;100010.19;5136885;27;20294;-60
2021/11/13 01:30:17;;;;;;;16.10;12.30;;;3.40;99.90;;;4.20;100.00;100010.94;5136769;27;20309;-62
2021/11/13 01:32:46;;;;;;;17.10;13.03;;;3.40;99.90;;;4.34;100.00;100014.63;5137057;27;20223;-60
2021/11/13 01:35:16;;;;;;;16.20;12.07;;;3.40;99.90;;;4.21;100.00;100009.91;5136811;27;20190;-63
2021/11/13 01:37:45;;;;;;;16.53;12.73;;;3.50;99.90;;;4.10;100.00;100009.53;5137082;27;20234;-60
2021/11/13 01:40:16;;;;;;;15.80;12.87;;;3.40;99.90;;;4.04;100.00;100008.44;5136277;27;20654;-59
2021/11/13 01:42:45;;;;;;;15.93;12.73;;;3.40;99.90;;;4.20;100.00;100000.28;5136563;27;20628;-58
2021/11/13 01:45:17;;;;;;;18.27;13.07;;;3.50;99.90;;;4.19;100.00;100001.31;5136636;27;20294;-59
2021/11/13 01:47:46;;;;;;;15.33;12.17;;;3.50;99.90;;;4.44;100.00;100008.00;5136557;27;20277;-60
2021/11/13 01:50:19;;;;;;;19.00;12.53;;;3.50;99.90;;;4.23;100.00;100001.75;5136432;27;20629;-60
2021/11/13 01:52:49;;;;;;;17.87;12.90;;;3.50;99.90;;;4.29;100.00;99996.53;5136736;27;20181;-60
2021/11/13 01:55:19;;;;;;;17.70;12.60;;;3.60;99.90;;;4.22;100.00;99995.59;5136422;27;20222;-60
2021/11/13 01:57:48;;;;;;;17.53;12.67;;;3.60;99.90;;;4.30;100.00;99995.50;5136686;27;20185;-60
2021/11/13 02:00:26;;;;;;;18.07;13.67;;;3.60;99.90;;;4.64;100.00;99994.94;5136495;27;20235;-59
2021/11/13 02:02:55;;;;;;;16.87;12.90;;;3.70;99.90;;;4.46;100.00;99984.66;5136224;27;20205;-60
2021/11/13 02:05:24;;;;;;;18.47;13.57;;;3.60;99.90;;;4.36;100.00;99981.44;5136086;27;20241;-60
2021/11/13 02:07:52;;;;;;;17.80;13.43;;;3.60;99.90;;;4.46;100.00;99976.66;5135381;27;20297;-60
2021/11/13 02:10:22;;;;;;;17.40;13.23;;;3.60;99.90;;;4.44;100.00;99989.34;5135591;27;20671;-60
2021/11/13 02:12:50;;;;;;;17.77;12.80;;;3.60;99.90;;;4.31;100.00;99985.66;5135554;27;20313;-59
2021/11/13 02:15:20;;;;;;;17.33;13.27;;;3.60;99.90;;;4.49;100.00;99981.63;5135900;27;20282;-59
2021/11/13 02:17:49;;;;;;;16.00;12.60;;;3.60;99.90;;;4.54;100.00;99989.06;5135324;27;20310;-60
2021/11/13 02:20:26;;;;;;;18.63;13.53;;;3.70;99.90;;;4.62;100.00;99981.78;5135803;27;20201;-58
2021/11/13 02:22:59;;;;;;;16.40;12.43;;;3.70;99.90;;;4.59;100.00;99978.66;5135988;27;20283;-59
2021/11/13 02:25:30;;;;;;;16.33;12.53;;;3.70;99.90;;;4.54;100.00;99973.88;5135748;27;20180;-59
2021/11/13 02:27:58;;;;;;;17.13;13.07;;;3.60;99.90;;;4.44;100.00;99969.84;5135900;27;20191;-59
2021/11/13 02:30:27;;;;;;;18.03;13.27;;;3.70;99.90;;;4.54;100.00;99970.38;5135539;27;20201;-59
2021/11/13 02:32:57;;;;;;;16.90;12.47;;;3.70;99.90;;;4.55;100.00;99964.88;5135683;27;20290;-59
2021/11/13 02:35:31;;;;;;;15.23;11.77;;;3.80;99.90;;;4.63;100.00;99964.75;5135825;27;20227;-58
2021/11/13 02:38:10;;;;;;;18.53;12.20;;;3.80;99.90;;;4.64;100.00;99960.25;5135658;27;20187;-59
2021/11/13 02:40:40;;;;;;;17.13;12.90;;;3.80;99.90;;;4.51;100.00;99963.59;5135552;27;20289;-55
2021/11/13 02:43:08;;;;;;;16.87;12.93;;;3.80;99.90;;;4.80;100.00;99965.41;5135566;27;20210;-56
2021/11/13 02:45:38;;;;;;;20.57;13.37;;;3.90;99.90;;;4.77;100.00;99968.41;5135352;27;20201;-53
2021/11/13 02:48:07;;;;;;;19.07;13.77;;;3.90;99.90;;;4.87;100.00;99960.97;5134998;27;20671;-54
2021/11/13 02:50:38;;;;;;;18.10;13.13;;;4.00;99.90;;;5.12;100.00;99956.09;5135443;27;20243;-56
2021/11/13 02:53:13;;;;;;;17.20;12.63;;;4.10;99.90;;;4.95;100.00;99972.31;5134983;27;20199;-57
2021/11/13 02:55:42;;;;;;;18.80;13.80;;;4.10;99.90;;;4.99;100.00;99970.94;5135129;27;20391;-56
2021/11/13 02:58:10;;;;;;;18.23;13.50;;;4.20;99.90;;;4.98;100.00;99963.13;5135081;27;20197;-54
2021/11/13 03:00:40;;;;;;;19.63;13.17;;;4.20;99.90;;;5.09;100.00;99959.94;5135001;27;20309;-54
2021/11/13 03:03:08;;;;;;;19.90;14.00;;;4.20;99.90;;;5.15;100.00;99958.38;5135229;27;20205;-55
2021/11/13 03:05:48;;;;;;;18.47;13.37;;;4.30;99.90;;;5.27;100.00;99962.19;5135079;27;20197;-55
2021/11/13 03:08:22;;;;;;;18.50;13.20;;;4.30;99.90;;;5.15;100.00;99959.22;5134565;27;20612;-54
2021/11/13 03:10:53;;;;;;;17.40;13.63;;;4.30;99.90;;;5.28;100.00;99954.00;5134864;27;20281;-53
2021/11/13 03:13:21;;;;;;;18.00;13.60;;;4.40;99.90;;;5.20;100.00;99948.78;5134921;27;20275;-55
2021/11/13 03:15:50;;;;;;;18.83;13.23;;;4.40;99.90;;;5.10;100.00;99947.44;5134529;27;20219;-55
2021/11/13 03:18:18;;;;;;;18.43;12.97;;;4.40;99.90;;;5.46;100.00;99945.53;5133571;27;20319;-54
2021/11/13 03:20:49;;;;;;;17.47;13.00;;;4.40;99.90;;;5.48;100.00;99944.31;5134540;27;20228;-54
2021/11/13 03:23:20;;;;;;;17.87;12.47;;;4.50;99.90;;;5.44;100.00;99944.91;5134345;27;20182;-55
2021/11/13 03:25:54;;;;;;;19.40;12.63;;;4.60;99.90;;;5.51;100.00;99935.09;5134469;27;20283;-53
2021/11/13 03:28:26;;;;;;;17.43;12.90;;;4.60;99.90;;;5.35;100.00;99938.88;5134579;27;20184;-54
2021/11/13 03:30:55;;;;;;;17.60;12.40;;;4.50;99.90;;;5.52;100.00;99937.59;5134541;27;20185;-56
2021/11/13 03:33:23;;;;;;;17.83;13.10;;;4.60;99.90;;;5.40;100.00;99948.97;5134114;27;20228;-56
2021/11/13 03:35:52;;;;;;;18.20;12.83;;;4.60;99.90;;;5.37;100.00;99936.00;5134019;27;20680;-52
2021/11/13 03:38:20;;;;;;;18.23;12.30;;;4.50;99.90;;;5.40;100.00;99946.28;5134431;27;20201;-55
2021/11/13 03:40:52;;;;;;;17.30;13.27;;;4.60;99.90;;;5.51;100.00;99935.94;5133963;27;20291;-50
2021/11/13 03:43:20;;;;;;;17.60;12.27;;;4.60;99.90;;;5.57;100.00;99939.66;5134131;27;20209;-53
2021/11/13 03:45:51;;;;;;;17.43;12.37;;;4.60;99.90;;;5.56;100.00;99933.50;5134149;27;20203;-54
2021/11/13 03:48:20;;;;;;;15.50;11.67;;;4.60;99.90;;;5.42;100.00;99939.75;5134079;27;20182;-54
2021/11/13 03:50:49;;;;;;;17.97;11.37;;;4.60;99.90;;;5.61;100.00;99938.28;5134165;27;20198;-56
2021/11/13 03:53:19;;;;;;;16.07;12.03;;;4.70;99.90;;;5.60;100.00;99937.44;5133775;27;20717;-54
2021/11/13 03:55:47;;;;;;;14.97;11.60;;;4.70;99.90;;;5.52;100.00;99934.91;5133879;27;20201;-53
2021/11/13 03:58:15;;;;;;;17.57;11.90;;;4.60;99.90;;;5.52;100.00;99934.06;5133960;27;20199;-54
2021/11/13 04:00:43;;;;;;;14.60;10.93;;;4.70;99.90;;;5.60;100.00;99937.44;5133855;27;20207;-54
2021/11/13 04:03:11;;;;;;;16.07;11.77;;;4.60;99.90;;;5.43;100.00;99938.72;5133509;27;20199;-57
2021/11/13 04:05:39;;;;;;;15.97;11.33;;;4.60;99.90;;;5.27;100.00;99939.00;5133898;27;20201;-53
2021/11/13 04:08:07;;;;;;;16.57;11.70;;;4.60;99.90;;;5.15;100.00;99940.53;5133907;27;20291;-54
2021/11/13 04:10:37;;;;;;;17.77;11.20;;;4.60;99.90;;;5.48;100.00;99935.50;5133295;27;20299;-53
2021/11/13 04:13:06;;;;;;;14.47;10.93;;;4.60;99.90;;;5.35;100.00;99928.19;5133352;27;20703;-54
2021/11/13 04:15:35;;;;;;;14.70;10.53;;;4.70;99.90;;;5.31;100.00;99923.44;5133830;27;20296;-55
2021/11/13 04:18:03;;;;;;;14.23;10.67;;;4.60;99.90;;;5.38;100.00;99918.97;5133276;27;20318;-54
2021/11/13 04:20:31;;;;;;;15.27;11.50;;;4.60;99.90;;;5.36;100.00;99926.34;5133766;27;20294;-54
2021/11/13 04:23:00;;;;;;;15.90;10.60;;;4.60;99.90;;;5.36;100.00;99921.00;5133699;27;20230;-53
2021/11/13 04:25:28;;;;;;;15.40;11.07;;;4.60;99.90;;;5.19;100.00;99925.78;5133507;27;20235;-55
2021/11/13 04:27:58;;;;;;;14.30;11.10;;;4.60;99.90;;;5.16;100.00;99928.81;5133654;28;20240;-54
2021/11/13 04:30:26;;;;;;;15.17;10.87;;;4.60;99.90;;;5.36;100.00;99929.81;5133271;27;20246;-55
2021/11/13 04:32:54;;;;;;;13.87;10.90;;;4.60;99.90;;;5.35;100.00;99935.34;5133428;28;20459;-54
2021/11/13 04:35:34;;;;;;;13.93;10.47;;;4.60;99.90;;;5.21;100.00;99937.06;5133633;28;20291;-54
2021/11/13 04:38:03;;;;;;;14.37;10.10;;;4.50;99.90;;;5.12;100.00;99946.25;5133234;28;20183;-53
2021/11/13 04:40:35;;;;;;;15.30;11.27;;;4.50;99.90;;;5.03;100.00;99952.72;5133407;28;20571;-56
2021/11/13 04:43:05;;;;;;;14.27;10.80;;;4.40;99.90;;;4.97;100.00;99940.94;5133648;28;20286;-55
2021/11/13 04:45:34;;;;;;;15.10;10.80;;;4.40;99.90;;;4.93;100.00;99937.00;5134020;28;20296;-53
2021/11/13 04:48:02;;;;;;;14.40;11.27;;;4.40;99.90;;;5.04;100.00;99941.00;5133455;28;20211;-52
2021/11/13 04:50:33;;;;;;;13.30;9.83;;;4.40;99.90;;;4.92;100.00;99934.53;5133488;28;20281;-53
2021/11/13 04:53:02;;;;;;;11.57;9.30;;;4.40;99.90;;;4.95;100.00;99928.81;5133408;28;20301;-54
2021/11/13 04:55:31;;;;;;;14.23;9.93;;;4.30;99.90;;;5.17;100.00;99932.31;5133313;28;20229;-53
2021/11/13 04:58:04;;;;;;;14.07;10.53;;;4.40;99.90;;;5.29;100.00;99926.28;5133337;28;20519;-54
2021/11/13 05:00:33;;;;;;;14.07;10.37;;;4.40;99.90;;;5.20;100.00;99934.59;5133489;28;20241;-54
2021/11/13 05:03:03;;;;;;;16.57;11.43;;;4.40;99.90;;;5.16;100.00;99936.81;5133125;28;20202;-52
2021/11/13 05:05:32;;;;;;;13.43;10.73;;;4.40;99.90;;;5.27;100.00;99946.19;5133127;28;20713;-51
2021/11/13 05:08:00;;;;;;;15.70;10.50;;;4.50;99.90;;;5.20;100.00;99948.78;5132989;28;20655;-52
2021/11/13 05:10:28;;;;;;;12.63;9.57;;;4.50;99.90;;;5.39;100.00;99941.97;5133142;28;20201;-52
2021/11/13 05:12:57;;;;;;;13.67;10.03;;;4.50;99.90;;;5.20;100.00;99950.63;5132874;28;20696;-54
2021/11/13 05:15:26;;;;;;;13.77;10.67;;;4.50;99.90;;;5.25;100.00;99954.38;5133265;28;20243;-54
2021/11/13 05:17:54;;;;;;;13.60;10.03;;;4.50;99.90;;;5.32;100.00;99946.44;5132832;28;20259;-56
2021/11/13 05:20:22;;;;;;;15.40;11.00;;;4.50;99.90;;;5.24;100.00;99936.72;5132794;28;20651;-54
2021/11/13 05:22:51;;;;;;;13.83;10.30;;;4.60;99.90;;;5.41;100.00;99934.59;5132847;28;20373;-54
2021/11/13 05:25:23;;;;;;;14.33;10.73;;;4.60;99.90;;;5.40;100.00;99932.94;5132901;28;20202;-55
2021/11/13 05:27:52;;;;;;;12.43;9.43;;;4.60;99.90;;;5.51;100.00;99943.13;5132943;28;20274;-55
2021/11/13 05:30:23;;;;;;;13.37;9.33;;;4.60;99.90;;;5.51;100.00;99940.44;5133084;28;20332;-54
2021/11/13 05:32:54;;;;;;;14.00;9.87;;;4.70;99.90;;;5.61;100.00;99938.28;5132968;28;20245;-55
2021/11/13 05:35:23;;;;;;;13.13;9.70;;;4.70;99.90;;;5.58;100.00;99947.47;5133154;28;20211;-54
2021/11/13 05:37:53;;;;;;;12.30;9.37;;;4.70;99.90;;;5.70;100.00;99943.25;5133238;28;20297;-55
2021/11/13 05:40:22;;;;;;;12.23;9.13;;;4.80;99.90;;;5.52;100.00;99944.75;5132865;28;20211;-55
2021/11/13 05:42:54;;;;;;;11.73;8.70;;;4.80;99.90;;;5.71;100.00;99949.44;5135099;27;20526;-54
2021/11/13 05:45:23;;;;;;;11.90;9.30;;;4.80;99.90;;;5.63;100.00;99937.03;5135787;27;20226;-53
2021/11/13 05:47:53;;;;;;;12.07;8.90;;;4.90;99.90;;;5.74;100.00;99941.03;5127415;27;20293;-53
2021/11/13 05:50:22;;;;;;;11.10;8.40;;;4.90;99.90;;;5.77;100.00;99937.97;5115540;28;20786;-54
2021/11/13 05:52:52;;;;;;;11.37;9.00;;;5.00;99.90;;;5.92;100.00;99944.06;5115485;28;20842;-55
2021/11/13 05:55:24;;;;;;;12.70;9.40;;;5.00;99.90;;;5.79;100.00;99941.28;5115675;28;20207;-54
2021/11/13 05:57:53;;;;;;;10.60;8.73;;;5.00;99.90;;;6.02;100.00;99931.22;5115853;28;20222;-53
2021/11/13 06:00:24;;;;;;;12.73;8.70;;;5.10;99.90;;;5.92;100.00;99952.94;5115728;28;20237;-53
2021/11/13 06:02:54;;;;;;;10.87;8.30;;;5.10;99.90;;;5.96;100.00;99950.69;5115350;28;21054;-55
2021/11/13 06:05:23;;;;;;;9.87;8.57;;;5.10;99.90;;;6.05;100.00;99950.34;5115513;28;20310;-55
2021/11/13 06:07:51;;;;;;;10.00;8.00;;;5.10;99.90;;;6.06;100.00;99951.16;5115506;28;20202;-55
2021/11/13 06:10:19;;;;;;;9.90;8.10;;;5.20;99.90;;;6.06;100.00;99953.84;5115288;28;20296;-56
2021/11/13 06:12:48;;;;;;;10.43;8.50;;;5.20;99.90;;;6.12;100.00;99961.91;5115326;28;20204;-54
2021/11/13 06:15:16;;;;;;;11.37;8.30;;;5.30;99.90;;;5.93;100.00;99954.59;5115512;28;20206;-55
2021/11/13 06:17:45;;;;;;;10.43;8.10;;;5.20;99.90;;;6.06;100.00;99956.53;5123429;27;20268;-55
2021/11/13 06:20:16;;;;;;;9.90;8.10;;;5.20;99.90;;;6.05;100.00;99963.69;5135787;27;20205;-54
2021/11/13 06:22:44;;;;;;;9.47;7.70;;;5.30;99.90;;;6.21;100.00;99967.94;5135928;27;20186;-54
2021/11/13 06:25:15;;;;;;;9.10;7.57;;;5.30;99.90;;;6.03;100.00;99965.78;5135186;27;20645;-54
2021/11/13 06:27:44;;;;;;;10.30;7.83;;;5.30;99.90;;;6.27;100.00;99974.34;5135843;27;20272;-56
2021/11/13 06:30:15;;;;;;;11.33;8.77;;;5.40;99.90;;;6.13;100.00;99982.28;5135751;27;20226;-55
2021/11/13 06:32:45;;;;;;;11.07;8.57;;;5.30;99.90;;;6.05;100.00;99987.78;5135568;27;20217;-55
2021/11/13 06:35:16;;;;;;;9.77;8.27;;;5.30;99.90;;;6.14;100.00;99991.97;5135721;27;20203;-54
2021/11/13 06:37:45;;;;;;;10.67;8.23;;;5.30;99.90;;;6.23;100.00;99989.97;5135316;27;20672;-55
2021/11/13 06:40:15;;;;;;;10.73;8.47;;;5.40;99.90;;;6.31;100.00;99994.34;5135211;27;20288;-55
2021/11/13 06:42:43;;;;;;;9.23;7.80;;;5.40;99.90;;;6.34;100.00;100000.13;5135531;27;20255;-54
2021/11/13 06:45:13;;;;;;;9.10;7.57;;;5.50;99.90;;;6.37;100.00;100006.91;5135203;27;20213;-54
2021/11/13 06:47:42;;;;;;;10.27;7.63;;;5.50;99.90;;;6.26;100.00;100002.13;5135020;27;20181;-54
2021/11/13 06:50:12;;;;;;;12.80;10.23;;;5.50;99.90;;;6.22;100.00;100009.72;5135211;27;20606;-55
2021/11/13 06:52:42;;;;;;;8.57;7.13;;;5.50;99.90;;;6.34;100.00;100010.81;5134900;27;20271;-54
2021/11/13 06:55:12;;;;;;;9.80;7.67;;;5.50;99.90;;;6.31;100.00;100008.53;5134988;27;20237;-53
2021/11/13 06:57:43;;;;;;;9.83;7.67;;;5.50;99.90;;;6.27;100.00;100009.13;5135172;27;20273;-53
2021/11/13 07:00:15;;;;;;;11.10;7.73;;;5.50;99.90;;;6.39;100.00;100011.06;5135158;27;20225;-52
2021/11/13 07:02:44;;;;;;;9.17;7.47;;;5.50;99.90;;;6.42;100.00;100016.00;5134682;27;20218;-53
2021/11/13 07:05:13;;;;;;;9.20;7.53;;;5.50;99.90;;;6.36;100.00;100018.66;5135029;27;20201;-54
2021/11/13 07:07:43;;;;;;;9.43;7.67;;;5.50;99.90;;;6.30;100.00;100028.28;5134921;27;20199;-52
2021/11/13 07:10:15;;;;;;;8.87;7.43;;;5.50;99.90;;;6.25;100.00;100029.88;5136526;27;20211;-52
2021/11/13 07:12:44;;;;;;;9.00;7.50;;;5.60;99.90;;;6.37;100.00;100033.66;5134954;27;20190;-55
2021/11/13 07:15:14;;;;;;;9.40;7.70;;;5.50;99.90;;;6.30;100.00;100033.63;5134759;27;20309;-55
2021/11/13 07:17:42;;;;;;;8.17;6.90;;;5.50;99.90;;;6.37;100.00;100028.31;5134321;27;20253;-56
2021/11/13 07:20:12;;;;;;;8.70;7.40;;;5.50;99.90;;;6.46;100.00;100021.81;5134663;27;20208;-55
2021/11/13 07:22:45;;;;;;;8.00;6.87;;;5.60;99.90;;;6.45;100.00;100020.97;5134969;27;20286;-53
2021/11/13 07:25:15;;;;;;;9.37;7.80;;;5.60;99.90;;;6.48;100.00;100023.25;5134334;27;20206;-55
2021/11/13 07:27:47;;;;;;;9.83;7.73;;;5.60;99.90;;;6.59;100.00;100021.88;5134276;27;20541;-55
2021/11/13 07:30:19;;;;;;;9.23;7.47;;;5.60;99.90;;;6.45;100.00;100020.97;5134624;27;20183;-54
2021/11/13 07:32:49;;;;;;;11.87;9.27;;;5.70;99.90;;;6.54;100.00;100017.13;5134367;27;20269;-56
2021/11/13 07:35:18;;;;;;;11.20;9.10;;;5.70;99.90;;;6.58;100.00;100025.59;5134153;27;20210;-54
2021/11/13 07:37:48;;;;;;;9.97;8.40;;;5.70;99.90;;;6.62;100.00;100033.00;5134359;27;20620;-53
2021/11/13 07:40:16;;;;;;;10.20;8.47;;;5.80;99.90;;;6.65;100.00;100035.28;5134037;27;20199;-51
2021/11/13 07:42:44;;;;;;;9.93;8.17;;;5.80;99.90;;;6.63;100.00;100034.66;5134056;27;20298;-55
2021/11/13 07:45:12;;;;;;;8.57;7.67;;;5.80;99.90;;;6.53;100.00;100036.84;5134038;27;20293;-54
2021/11/13 07:47:41;;;;;;;9.53;8.33;;;5.80;99.90;;;6.55;100.00;100044.69;5133620;27;20230;-51
2021/11/13 07:50:12;;;;;;;11.47;8.13;;;5.80;99.90;;;6.52;100.00;100045.09;5134224;27;20203;-51
2021/11/13 07:52:43;;;;;;;11.53;9.40;;;5.70;99.90;;;6.41;100.00;100035.75;5133959;27;20266;-53
2021/11/13 07:55:14;;;;;;;10.27;8.37;;;5.60;99.90;;;6.56;100.00;100041.81;5133290;27;20297;-53
2021/11/13 07:57:43;;;;;;;10.97;8.77;;;5.70;99.90;;;6.45;100.00;100042.38;5133889;27;20202;-51
2021/11/13 08:00:15;;;;;;;11.80;9.07;;;5.70;99.90;;;6.50;100.00;100047.97;5134046;27;20199;-55
2021/11/13 08:02:44;;;;;;;10.43;8.10;;;5.60;99.90;;;6.42;100.00;100047.28;5133573;27;20613;-54
2021/11/13 08:05:13;;;;;;;10.20;8.17;;;5.60;99.90;;;6.65;100.00;100043.31;5133122;27;20289;-55
2021/11/13 08:07:42;;;;;;;9.07;8.17;;;5.60;99.90;;;6.40;100.00;100031.44;5133703;27;20755;-54
2021/11/13 08:10:14;;;;;;;11.13;8.50;;;5.60;99.90;;;6.49;100.00;100032.09;5133667;27;20194;-53
2021/11/13 08:12:42;;;;;;;11.20;9.10;;;5.60;99.90;;;6.45;100.00;100042.38;5133641;27;20274;-53
2021/11/13 08:15:12;;;;;;;9.97;8.80;;;5.60;99.90;;;6.40;100.00;100036.78;5133432;27;20214;-55
2021/11/13 08:17:41;;;;;;;10.83;8.43;;;5.70;99.90;;;6.41;100.00;100034.94;5133208;27;20255;-54
2021/11/13 08:20:12;;;;;;;11.33;7.83;;;5.60;99.90;;;6.57;100.00;100046.16;5133739;27;20582;-54
2021/11/13 08:22:43;;;;;;;11.90;8.60;;;5.70;99.90;;;6.49;100.00;100038.28;5133392;27;20316;-56
2021/11/13 08:25:15;;;;;;;11.57;8.50;;;5.70;99.90;;;6.51;100.00;100046.13;5133412;27;20277;-54
2021/11/13 08:27:44;;;;;;;12.53;8.90;;;5.70;99.90;;;6.65;100.00;100046.00;5133683;27;20182;-52
2021/11/13 08:30:15;;;;;;;12.63;10.00;;;5.70;99.90;;;6.66;100.00;100038.78;5133371;28;20224;-55
2021/11/13 08:32:46;;;;;;;13.90;8.67;;;5.70;99.90;;;6.64;100.00;100038.16;5132641;27;20178;-55
2021/11/13 08:35:15;;;;;;;10.07;8.20;;;5.80;99.90;;;6.52;100.00;100050.44;5131048;28;20235;-53
2021/11/13 08:37:43;;;;;;;10.87;8.67;;;5.80;99.90;;;6.65;100.00;100037.13;5133172;28;20211;-52
2021/11/13 08:40:15;;;;;;;11.57;8.70;;;5.80;99.90;;;6.57;100.00;100038.13;5132348;28;20251;-54
2021/11/13 08:42:44;;;;;;;8.67;7.47;;;5.80;99.90;;;6.67;100.00;100037.75;5132822;28;20674;-54
2021/11/13 08:45:12;;;;;;;13.23;8.40;;;5.90;99.90;;;6.74;100.00;100033.28;5133171;28;20612;-54
2021/11/13 08:47:42;;;;;;;10.07;8.77;;;5.90;99.90;;;6.76;100.00;100037.41;5133289;28;20415;-55
2021/11/13 08:50:19;;;;;;;12.53;9.10;;;5.90;99.90;;;6.98;100.00;100038.13;5133369;28;20198;-56
2021/11/13 08:52:49;;;;;;;10.47;8.63;;;6.00;99.90;;;6.82;100.00;100041.13;5133188;28;20281;-53
2021/11/13 08:55:22;;;;;;;11.13;9.13;;;6.00;99.90;;;6.98;100.00;100038.97;5132981;28;20203;-56
2021/11/13 08:57:52;;;;;;;10.87;8.70;;;6.00;99.90;;;7.07;100.00;100040.44;5133253;28;20193;-53
2021/11/13 09:00:28;;;;;;;10.00;8.10;;;6.10;99.90;;;7.17;100.00;100024.81;5133006;28;20650;-53
2021/11/13 09:02:59;;;;;;;11.07;8.07;;;6.20;99.90;;;7.08;100.00;100034.06;5133133;28;20189;-56
2021/11/13 09:05:29;;;;;;;10.60;8.00;;;6.20;99.90;;;7.29;100.00;100035.75;5124638;28;20187;-54
2021/11/13 09:07:59;;;;;;;9.57;7.83;;;6.30;99.90;;;7.25;100.00;100038.03;5132698;28;20238;-52
2021/11/13 09:10:29;;;;;;;12.40;8.90;;;6.30;99.90;;;7.20;100.00;100035.13;5132856;28;20595;-56
2021/11/13 09:13:00;;;;;;;9.47;8.27;;;6.40;99.90;;;7.33;100.00;100037.03;5133074;28;20230;-53
2021/11/13 09:15:35;;;;;;;11.37;7.97;;;6.50;99.90;;;7.40;100.00;100038.72;5132512;28;20207;-54
2021/11/13 09:18:05;;;;;;;10.50;8.47;;;6.50;99.90;;;7.45;100.00;100032.72;5134836;27;20626;-54
2021/11/13 09:20:35;;;;;;;10.20;8.33;;;6.60;99.90;;;7.39;100.00;100029.00;5131044;27;20202;-54
2021/11/13 09:23:04;;;;;;;10.53;8.30;;;6.60;99.90;;;7.55;100.00;100024.28;5115889;28;20199;-53
2021/11/13 09:25:35;;;;;;;11.37;8.73;;;6.70;99.90;;;7.49;100.00;100031.31;5124114;27;20230;-53
2021/11/13 09:28:04;;;;;;;9.37;7.47;;;6.80;99.90;;;7.56;100.00;100023.28;5134930;27;20285;-51
2021/11/13 09:30:36;;;;;;;10.03;7.93;;;6.80;99.90;;;7.69;100.00;100024.13;5135984;27;20203;-55
2021/11/13 09:33:05;;;;;;;11.70;7.73;;;6.80;99.90;;;7.68;100.00;100024.34;5136521;27;20183;-56
2021/11/13 09:35:33;;;;;;;9.83;8.20;;;6.90;99.90;;;7.82;100.00;100032.19;5136269;27;20236;-54
2021/11/13 09:38:22;;;;;;;10.33;8.00;;;7.00;99.90;;;7.64;100.00;100037.31;5136337;27;20709;-54
2021/11/13 09:40:53;;;;;;;8.70;7.60;;;7.00;99.90;;;7.86;100.00;100032.59;5136355;27;20203;-53
2021/11/13 09:43:23;;;;;;;10.60;7.90;;;7.00;99.90;;;7.83;100.00;100033.00;5137031;27;20194;-54
2021/11/13 09:45:54;;;;;;;9.53;7.27;;;7.10;99.90;;;7.85;100.00;100026.41;5136296;27;20274;-55
2021/11/13 09:48:23;;;;;;;9.73;7.80;;;7.10;99.90;;;7.79;100.00;100024.53;5136277;27;20183;-54
2021/11/13 09:50:52;;;;;;;11.70;8.13;;;7.10;99.90;;;8.06;100.00;100020.00;5136268;27;20191;-54
2021/11/13 09:53:24;;;;;;;9.47;7.67;;;7.10;99.90;;;8.00;100.00;100027.00;5136129;27;20289;-55
2021/11/13 09:55:56;;;;;;;10.70;7.80;;;7.20;99.90;;;8.05;100.00;100026.41;5135930;27;20294;-55
2021/11/13 09:58:27;;;;;;;8.57;7.17;;;7.30;99.90;;;8.30;100.00;100030.94;5136237;27;20269;-55
2021/11/13 10:00:56;;;;;;;8.90;7.90;;;7.40;99.90;;;8.20;100.00;100029.72;5127489;27;20776;-54
2021/11/13 10:03:25;;;;;;;8.67;7.40;;;7.40;99.90;;;8.39;100.00;100026.19;5136029;27;20252;-56
2021/11/13 10:05:58;;;;;;;9.27;7.10;;;7.60;99.90;;;8.52;100.00;100029.69;5135873;27;20194;-55
2021/11/13 10:08:27;;;;;;;9.77;7.47;;;7.70;99.90;;;8.45;100.00;100028.91;5136056;27;20283;-55
2021/11/13 10:11:00;;;;;;;9.33;7.67;;;7.70;99.90;;;8.66;100.00;100033.16;5135277;27;20286;-55
2021/11/13 10:13:37;;;;;;;9.27;7.50;;;7.80;99.90;;;8.75;100.00;100018.47;5135890;27;20523;-57
2021/11/13 10:16:10;;;;;;;9.43;7.10;;;7.90;99.90;;;8.75;100.00;100015.78;5135468;27;20684;-53
2021/11/13 10:18:44;;;;;;;8.17;7.07;;;7.90;99.90;;;8.90;100.00;100010.16;5135280;27;20227;-52
2021/11/13 10:21:19;;;;;;;10.70;7.97;;;8.00;99.90;;;9.25;100.00;100014.16;5135470;27;20617;-58
2021/11/13 10:23:50;;;;;;;8.40;6.97;;;8.10;99.90;;;9.24;100.00;100016.00;5135563;27;20269;-55